sensor_id;sensor_type;location;lat;lon;timestamp;P1;durP1;ratioP1;P2;durP2;ratioP2
21260;SDS011;10788;47.930;9.766;2022-08-11T00:00:00;0.00;;;0.00;;
21260;SDS011;10788;47.930;9.766;2022-08-11T00:02:43;0.00;;;0.00;;
21260;SDS011;10788;47.930;9.766;2022-08-11T00:05:12;0.10;;;0.10;;
21260;SDS011;10788;47.930;9.766;2022-08-11T00:10:31;0.03;;;0.03;;
21260;SDS011;10788;47.930;9.766;2022-08-11T00:12:58;0.00;;;0.00;;
21260;SDS011;10788;47.930;9.766;2022-08-11T00:15:27;0.00;;;0.00;;
21260;SDS011;10788;47.930;9.766;2022-08-11T00:18:02;0.00;;;0.00;;
21260;SDS011;10788;47.930;9.766;2022-08-11T00:20:33;0.00;;;0.00;;
21260;SDS011;10788;47.930;9.766;2022-08-11T00:23:07;0.00;;;0.00;;
21260;SDS011;10788;47.930;9.766;2022-08-11T00:25:38;0.00;;;0.00;;
21260;SDS011;10788;47.930;9.766;2022-08-11T00:28:26;0.00;;;0.00;;
21260;SDS011;10788;47.930;9.766;2022-08-11T00:30:52;0.10;;;0.10;;
21260;SDS011;10788;47.930;9.766;2022-08-11T00:33:19;0.00;;;0.00;;
21260;SDS011;10788;47.930;9.766;2022-08-11T00:35:48;0.00;;;0.00;;
21260;SDS011;10788;47.930;9.766;2022-08-11T00:38:15;0.00;;;0.00;;
21260;SDS011;10788;47.930;9.766;2022-08-11T00:43:19;0.00;;;0.00;;
21260;SDS011;10788;47.930;9.766;2022-08-11T00:48:44;0.00;;;0.00;;
21260;SDS011;10788;47.930;9.766;2022-08-11T00:51:25;0.00;;;0.00;;
21260;SDS011;10788;47.930;9.766;2022-08-11T00:54:07;0.00;;;0.00;;
21260;SDS011;10788;47.930;9.766;2022-08-11T00:59:42;0.00;;;0.00;;
21260;SDS011;10788;47.930;9.766;2022-08-11T01:15:57;0.00;;;0.00;;
21260;SDS011;10788;47.930;9.766;2022-08-11T01:19:14;0.00;;;0.00;;
21260;SDS011;10788;47.930;9.766;2022-08-11T01:47:35;0.00;;;0.00;;
21260;SDS011;10788;47.930;9.766;2022-08-11T01:59:02;0.00;;;0.00;;
21260;SDS011;10788;47.930;9.766;2022-08-11T02:12:43;0.00;;;0.00;;
21260;SDS011;10788;47.930;9.766;2022-08-11T02:15:44;0.00;;;0.00;;
21260;SDS011;10788;47.930;9.766;2022-08-11T02:18:20;0.00;;;0.00;;
21260;SDS011;10788;47.930;9.766;2022-08-11T02:21:40;0.00;;;0.00;;
21260;SDS011;10788;47.930;9.766;2022-08-11T02:24:43;0.00;;;0.00;;
21260;SDS011;10788;47.930;9.766;2022-08-11T02:27:22;0.00;;;0.00;;
21260;SDS011;10788;47.930;9.766;2022-08-11T02:32:33;0.00;;;0.00;;
21260;SDS011;10788;47.930;9.766;2022-08-11T02:35:26;0.00;;;0.00;;
21260;SDS011;10788;47.930;9.766;2022-08-11T02:40:42;0.00;;;0.00;;
21260;SDS011;10788;47.930;9.766;2022-08-11T02:43:36;0.00;;;0.00;;
21260;SDS011;10788;47.930;9.766;2022-08-11T02:46:24;0.00;;;0.00;;
21260;SDS011;10788;47.930;9.766;2022-08-11T02:49:04;0.00;;;0.00;;
21260;SDS011;10788;47.930;9.766;2022-08-11T02:52:04;0.00;;;0.00;;
21260;SDS011;10788;47.930;9.766;2022-08-11T02:54:43;0.00;;;0.00;;
21260;SDS011;10788;47.930;9.766;2022-08-11T03:00:07;0.07;;;0.07;;
21260;SDS011;10788;47.930;9.766;2022-08-11T03:11:25;0.00;;;0.00;;
21260;SDS011;10788;47.930;9.766;2022-08-11T03:14:26;0.00;;;0.00;;
21260;SDS011;10788;47.930;9.766;2022-08-11T03:28:17;0.00;;;0.00;;
21260;SDS011;10788;47.930;9.766;2022-08-11T03:33:26;0.00;;;0.00;;
21260;SDS011;10788;47.930;9.766;2022-08-11T03:41:31;0.00;;;0.00;;
21260;SDS011;10788;47.930;9.766;2022-08-11T03:52:25;0.03;;;0.03;;
21260;SDS011;10788;47.930;9.766;2022-08-11T04:00:48;0.00;;;0.00;;
21260;SDS011;10788;47.930;9.766;2022-08-11T04:03:28;0.00;;;0.00;;
21260;SDS011;10788;47.930;9.766;2022-08-11T04:09:32;0.00;;;0.00;;
21260;SDS011;10788;47.930;9.766;2022-08-11T04:21:05;0.00;;;0.00;;
21260;SDS011;10788;47.930;9.766;2022-08-11T04:40:17;0.00;;;0.00;;
21260;SDS011;10788;47.930;9.766;2022-08-11T04:52:11;0.00;;;0.00;;
21260;SDS011;10788;47.930;9.766;2022-08-11T05:09:57;0.00;;;0.00;;
21260;SDS011;10788;47.930;9.766;2022-08-11T05:12:28;0.00;;;0.00;;
21260;SDS011;10788;47.930;9.766;2022-08-11T05:15:00;0.00;;;0.00;;
21260;SDS011;10788;47.930;9.766;2022-08-11T05:20:56;0.00;;;0.00;;
21260;SDS011;10788;47.930;9.766;2022-08-11T05:23:51;0.00;;;0.00;;
21260;SDS011;10788;47.930;9.766;2022-08-11T05:26:49;0.00;;;0.00;;
21260;SDS011;10788;47.930;9.766;2022-08-11T05:29:37;0.00;;;0.00;;
21260;SDS011;10788;47.930;9.766;2022-08-11T05:32:22;0.00;;;0.00;;
21260;SDS011;10788;47.930;9.766;2022-08-11T05:35:08;0.00;;;0.00;;
21260;SDS011;10788;47.930;9.766;2022-08-11T05:37:39;0.10;;;0.10;;
21260;SDS011;10788;47.930;9.766;2022-08-11T05:40:25;0.00;;;0.00;;
21260;SDS011;10788;47.930;9.766;2022-08-11T05:43:13;0.00;;;0.00;;
21260;SDS011;10788;47.930;9.766;2022-08-11T05:46:02;0.00;;;0.00;;
21260;SDS011;10788;47.930;9.766;2022-08-11T05:48:49;0.00;;;0.00;;
21260;SDS011;10788;47.930;9.766;2022-08-11T05:51:35;0.00;;;0.00;;
21260;SDS011;10788;47.930;9.766;2022-08-11T05:54:25;0.00;;;0.00;;
21260;SDS011;10788;47.930;9.766;2022-08-11T05:57:44;0.00;;;0.00;;
21260;SDS011;10788;47.930;9.766;2022-08-11T06:00:06;0.00;;;0.00;;
21260;SDS011;10788;47.930;9.766;2022-08-11T06:02:43;0.00;;;0.00;;
21260;SDS011;10788;47.930;9.766;2022-08-11T06:05:13;0.00;;;0.00;;
21260;SDS011;10788;47.930;9.766;2022-08-11T06:07:40;0.00;;;0.00;;
21260;SDS011;10788;47.930;9.766;2022-08-11T06:10:07;0.00;;;0.00;;
21260;SDS011;10788;47.930;9.766;2022-08-11T06:12:34;0.00;;;0.00;;
21260;SDS011;10788;47.930;9.766;2022-08-11T06:15:05;0.00;;;0.00;;
21260;SDS011;10788;47.930;9.766;2022-08-11T06:17:34;0.00;;;0.00;;
21260;SDS011;10788;47.930;9.766;2022-08-11T06:20:10;0.00;;;0.00;;
21260;SDS011;10788;47.930;9.766;2022-08-11T06:22:40;0.10;;;0.10;;
21260;SDS011;10788;47.930;9.766;2022-08-11T06:25:09;0.00;;;0.00;;
21260;SDS011;10788;47.930;9.766;2022-08-11T06:27:36;0.00;;;0.00;;
21260;SDS011;10788;47.930;9.766;2022-08-11T06:30:04;0.00;;;0.00;;
21260;SDS011;10788;47.930;9.766;2022-08-11T06:32:37;0.00;;;0.00;;
21260;SDS011;10788;47.930;9.766;2022-08-11T06:35:24;0.00;;;0.00;;
21260;SDS011;10788;47.930;9.766;2022-08-11T06:41:06;0.00;;;0.00;;
21260;SDS011;10788;47.930;9.766;2022-08-11T06:46:41;0.00;;;0.00;;
21260;SDS011;10788;47.930;9.766;2022-08-11T06:49:11;0.00;;;0.00;;
21260;SDS011;10788;47.930;9.766;2022-08-11T06:52:01;0.00;;;0.00;;
21260;SDS011;10788;47.930;9.766;2022-08-11T06:54:29;0.00;;;0.00;;
21260;SDS011;10788;47.930;9.766;2022-08-11T06:56:59;0.00;;;0.00;;
21260;SDS011;10788;47.930;9.766;2022-08-11T06:59:45;0.00;;;0.00;;
21260;SDS011;10788;47.930;9.766;2022-08-11T07:14:20;0.00;;;0.00;;
21260;SDS011;10788;47.930;9.766;2022-08-11T07:17:10;0.00;;;0.00;;
21260;SDS011;10788;47.930;9.766;2022-08-11T07:19:39;0.00;;;0.00;;
21260;SDS011;10788;47.930;9.766;2022-08-11T07:22:29;0.00;;;0.00;;
21260;SDS011;10788;47.930;9.766;2022-08-11T07:25:15;0.00;;;0.00;;
21260;SDS011;10788;47.930;9.766;2022-08-11T07:28:10;0.00;;;0.00;;
21260;SDS011;10788;47.930;9.766;2022-08-11T07:31:03;0.00;;;0.00;;
21260;SDS011;10788;47.930;9.766;2022-08-11T07:33:41;0.00;;;0.00;;
21260;SDS011;10788;47.930;9.766;2022-08-11T07:36:10;0.00;;;0.00;;
21260;SDS011;10788;47.930;9.766;2022-08-11T07:38:42;0.00;;;0.00;;
21260;SDS011;10788;47.930;9.766;2022-08-11T07:41:16;0.00;;;0.00;;
21260;SDS011;10788;47.930;9.766;2022-08-11T07:43:44;0.00;;;0.00;;
21260;SDS011;10788;47.930;9.766;2022-08-11T07:46:15;0.00;;;0.00;;
21260;SDS011;10788;47.930;9.766;2022-08-11T07:49:00;0.10;;;0.10;;
21260;SDS011;10788;47.930;9.766;2022-08-11T07:51:46;0.00;;;0.00;;
21260;SDS011;10788;47.930;9.766;2022-08-11T07:54:32;0.00;;;0.00;;
21260;SDS011;10788;47.930;9.766;2022-08-11T07:56:59;0.00;;;0.00;;
21260;SDS011;10788;47.930;9.766;2022-08-11T07:59:46;0.00;;;0.00;;
21260;SDS011;10788;47.930;9.766;2022-08-11T08:02:30;0.00;;;0.00;;
21260;SDS011;10788;47.930;9.766;2022-08-11T08:05:16;0.03;;;0.03;;
21260;SDS011;10788;47.930;9.766;2022-08-11T08:08:01;0.00;;;0.00;;
21260;SDS011;10788;47.930;9.766;2022-08-11T08:10:46;0.10;;;0.10;;
21260;SDS011;10788;47.930;9.766;2022-08-11T08:13:31;0.00;;;0.00;;
21260;SDS011;10788;47.930;9.766;2022-08-11T08:16:17;0.00;;;0.00;;
21260;SDS011;10788;47.930;9.766;2022-08-11T08:19:03;0.00;;;0.00;;
21260;SDS011;10788;47.930;9.766;2022-08-11T08:21:29;0.10;;;0.10;;
21260;SDS011;10788;47.930;9.766;2022-08-11T08:23:56;0.10;;;0.10;;
21260;SDS011;10788;47.930;9.766;2022-08-11T08:26:22;0.00;;;0.00;;
21260;SDS011;10788;47.930;9.766;2022-08-11T08:29:33;0.10;;;0.10;;
21260;SDS011;10788;47.930;9.766;2022-08-11T08:32:20;0.10;;;0.10;;
21260;SDS011;10788;47.930;9.766;2022-08-11T08:34:49;0.10;;;0.10;;
21260;SDS011;10788;47.930;9.766;2022-08-11T08:37:17;0.07;;;0.07;;
21260;SDS011;10788;47.930;9.766;2022-08-11T08:39:44;0.10;;;0.10;;
21260;SDS011;10788;47.930;9.766;2022-08-11T08:42:11;0.10;;;0.10;;
21260;SDS011;10788;47.930;9.766;2022-08-11T08:44:42;0.10;;;0.10;;
21260;SDS011;10788;47.930;9.766;2022-08-11T08:47:14;0.00;;;0.00;;
21260;SDS011;10788;47.930;9.766;2022-08-11T08:49:49;0.10;;;0.10;;
21260;SDS011;10788;47.930;9.766;2022-08-11T08:52:22;0.00;;;0.00;;
21260;SDS011;10788;47.930;9.766;2022-08-11T08:54:50;0.10;;;0.10;;
21260;SDS011;10788;47.930;9.766;2022-08-11T08:57:23;0.00;;;0.00;;
21260;SDS011;10788;47.930;9.766;2022-08-11T08:59:52;0.10;;;0.10;;
21260;SDS011;10788;47.930;9.766;2022-08-11T09:02:19;0.10;;;0.10;;
21260;SDS011;10788;47.930;9.766;2022-08-11T09:04:49;0.00;;;0.00;;
21260;SDS011;10788;47.930;9.766;2022-08-11T09:07:16;0.10;;;0.10;;
21260;SDS011;10788;47.930;9.766;2022-08-11T09:09:51;0.10;;;0.10;;
21260;SDS011;10788;47.930;9.766;2022-08-11T09:12:21;0.10;;;0.10;;
21260;SDS011;10788;47.930;9.766;2022-08-11T09:14:51;0.10;;;0.10;;
21260;SDS011;10788;47.930;9.766;2022-08-11T09:17:49;0.10;;;0.10;;
21260;SDS011;10788;47.930;9.766;2022-08-11T09:20:24;0.10;;;0.10;;
21260;SDS011;10788;47.930;9.766;2022-08-11T09:22:56;0.00;;;0.00;;
21260;SDS011;10788;47.930;9.766;2022-08-11T09:25:42;0.10;;;0.10;;
21260;SDS011;10788;47.930;9.766;2022-08-11T09:28:27;0.10;;;0.10;;
21260;SDS011;10788;47.930;9.766;2022-08-11T09:30:55;0.10;;;0.10;;
21260;SDS011;10788;47.930;9.766;2022-08-11T09:33:25;0.10;;;0.10;;
21260;SDS011;10788;47.930;9.766;2022-08-11T09:35:53;0.17;;;0.17;;
21260;SDS011;10788;47.930;9.766;2022-08-11T09:38:19;0.10;;;0.10;;
21260;SDS011;10788;47.930;9.766;2022-08-11T09:41:07;0.10;;;0.10;;
21260;SDS011;10788;47.930;9.766;2022-08-11T09:43:43;0.10;;;0.10;;
21260;SDS011;10788;47.930;9.766;2022-08-11T09:46:29;0.10;;;0.10;;
21260;SDS011;10788;47.930;9.766;2022-08-11T09:48:58;0.10;;;0.10;;
21260;SDS011;10788;47.930;9.766;2022-08-11T09:51:30;0.10;;;0.10;;
21260;SDS011;10788;47.930;9.766;2022-08-11T09:53:58;0.10;;;0.10;;
21260;SDS011;10788;47.930;9.766;2022-08-11T09:56:27;0.13;;;0.13;;
21260;SDS011;10788;47.930;9.766;2022-08-11T09:59:12;0.10;;;0.10;;
21260;SDS011;10788;47.930;9.766;2022-08-11T10:01:39;0.10;;;0.10;;
21260;SDS011;10788;47.930;9.766;2022-08-11T10:04:13;0.20;;;0.20;;
21260;SDS011;10788;47.930;9.766;2022-08-11T10:06:41;0.10;;;0.10;;
21260;SDS011;10788;47.930;9.766;2022-08-11T10:09:49;0.10;;;0.10;;
21260;SDS011;10788;47.930;9.766;2022-08-11T10:12:22;0.20;;;0.20;;
21260;SDS011;10788;47.930;9.766;2022-08-11T10:14:55;0.20;;;0.20;;
21260;SDS011;10788;47.930;9.766;2022-08-11T10:17:45;0.10;;;0.10;;
21260;SDS011;10788;47.930;9.766;2022-08-11T10:20:33;0.17;;;0.17;;
21260;SDS011;10788;47.930;9.766;2022-08-11T10:23:01;0.10;;;0.10;;
21260;SDS011;10788;47.930;9.766;2022-08-11T10:25:46;0.10;;;0.10;;
21260;SDS011;10788;47.930;9.766;2022-08-11T10:28:31;0.10;;;0.10;;
21260;SDS011;10788;47.930;9.766;2022-08-11T10:30:59;0.10;;;0.10;;
21260;SDS011;10788;47.930;9.766;2022-08-11T10:33:46;0.20;;;0.20;;
21260;SDS011;10788;47.930;9.766;2022-08-11T10:36:30;0.13;;;0.13;;
21260;SDS011;10788;47.930;9.766;2022-08-11T10:39:07;0.10;;;0.10;;
21260;SDS011;10788;47.930;9.766;2022-08-11T10:41:34;0.10;;;0.10;;
21260;SDS011;10788;47.930;9.766;2022-08-11T10:44:20;0.20;;;0.20;;
21260;SDS011;10788;47.930;9.766;2022-08-11T10:46:47;0.20;;;0.20;;
21260;SDS011;10788;47.930;9.766;2022-08-11T10:49:32;0.20;;;0.20;;
21260;SDS011;10788;47.930;9.766;2022-08-11T10:51:58;0.20;;;0.20;;
21260;SDS011;10788;47.930;9.766;2022-08-11T10:54:43;0.10;;;0.10;;
21260;SDS011;10788;47.930;9.766;2022-08-11T10:57:28;0.20;;;0.20;;
21260;SDS011;10788;47.930;9.766;2022-08-11T11:00:13;0.17;;;0.17;;
21260;SDS011;10788;47.930;9.766;2022-08-11T11:02:43;0.10;;;0.10;;
21260;SDS011;10788;47.930;9.766;2022-08-11T11:05:18;0.20;;;0.20;;
21260;SDS011;10788;47.930;9.766;2022-08-11T11:07:55;0.23;;;0.23;;
21260;SDS011;10788;47.930;9.766;2022-08-11T11:10:28;0.20;;;0.20;;
21260;SDS011;10788;47.930;9.766;2022-08-11T11:12:56;0.20;;;0.20;;
21260;SDS011;10788;47.930;9.766;2022-08-11T11:15:43;0.20;;;0.20;;
21260;SDS011;10788;47.930;9.766;2022-08-11T11:18:35;0.20;;;0.20;;
21260;SDS011;10788;47.930;9.766;2022-08-11T11:21:04;0.20;;;0.20;;
21260;SDS011;10788;47.930;9.766;2022-08-11T11:23:40;0.30;;;0.30;;
21260;SDS011;10788;47.930;9.766;2022-08-11T11:37:36;0.23;;;0.23;;
21260;SDS011;10788;47.930;9.766;2022-08-11T11:40:10;0.37;;;0.37;;
21260;SDS011;10788;47.930;9.766;2022-08-11T11:42:41;0.20;;;0.20;;
21260;SDS011;10788;47.930;9.766;2022-08-11T11:45:09;0.30;;;0.30;;
21260;SDS011;10788;47.930;9.766;2022-08-11T11:47:39;0.20;;;0.20;;
21260;SDS011;10788;47.930;9.766;2022-08-11T11:50:06;0.30;;;0.30;;
21260;SDS011;10788;47.930;9.766;2022-08-11T11:52:33;0.27;;;0.27;;
21260;SDS011;10788;47.930;9.766;2022-08-11T11:55:00;0.37;;;0.37;;
21260;SDS011;10788;47.930;9.766;2022-08-11T11:57:28;0.30;;;0.30;;
21260;SDS011;10788;47.930;9.766;2022-08-11T12:00:13;0.30;;;0.30;;
21260;SDS011;10788;47.930;9.766;2022-08-11T12:02:58;0.30;;;0.30;;
21260;SDS011;10788;47.930;9.766;2022-08-11T12:05:32;0.40;;;0.40;;
21260;SDS011;10788;47.930;9.766;2022-08-11T12:08:00;0.30;;;0.30;;
21260;SDS011;10788;47.930;9.766;2022-08-11T12:10:39;0.30;;;0.30;;
21260;SDS011;10788;47.930;9.766;2022-08-11T12:13:10;0.30;;;0.30;;
21260;SDS011;10788;47.930;9.766;2022-08-11T12:15:54;0.20;;;0.20;;
21260;SDS011;10788;47.930;9.766;2022-08-11T12:18:21;0.20;;;0.20;;
21260;SDS011;10788;47.930;9.766;2022-08-11T12:20:47;0.37;;;0.37;;
21260;SDS011;10788;47.930;9.766;2022-08-11T12:23:13;0.30;;;0.30;;
21260;SDS011;10788;47.930;9.766;2022-08-11T12:25:58;0.30;;;0.30;;
21260;SDS011;10788;47.930;9.766;2022-08-11T12:28:43;0.20;;;0.20;;
21260;SDS011;10788;47.930;9.766;2022-08-11T12:31:10;0.30;;;0.30;;
21260;SDS011;10788;47.930;9.766;2022-08-11T12:33:36;0.30;;;0.30;;
21260;SDS011;10788;47.930;9.766;2022-08-11T12:36:05;0.20;;;0.20;;
21260;SDS011;10788;47.930;9.766;2022-08-11T12:38:33;0.30;;;0.30;;
21260;SDS011;10788;47.930;9.766;2022-08-11T12:41:00;0.23;;;0.23;;
21260;SDS011;10788;47.930;9.766;2022-08-11T12:43:45;0.30;;;0.30;;
21260;SDS011;10788;47.930;9.766;2022-08-11T12:46:32;0.20;;;0.20;;
21260;SDS011;10788;47.930;9.766;2022-08-11T12:49:01;0.30;;;0.30;;
21260;SDS011;10788;47.930;9.766;2022-08-11T12:51:55;0.20;;;0.20;;
21260;SDS011;10788;47.930;9.766;2022-08-11T12:57:29;0.20;;;0.20;;
21260;SDS011;10788;47.930;9.766;2022-08-11T13:00:22;0.20;;;0.20;;
21260;SDS011;10788;47.930;9.766;2022-08-11T13:03:09;0.20;;;0.20;;
21260;SDS011;10788;47.930;9.766;2022-08-11T13:06:01;0.30;;;0.30;;
21260;SDS011;10788;47.930;9.766;2022-08-11T13:08:29;0.23;;;0.23;;
21260;SDS011;10788;47.930;9.766;2022-08-11T13:10:58;0.20;;;0.20;;
21260;SDS011;10788;47.930;9.766;2022-08-11T13:13:44;0.30;;;0.30;;
21260;SDS011;10788;47.930;9.766;2022-08-11T13:16:11;0.20;;;0.20;;
21260;SDS011;10788;47.930;9.766;2022-08-11T13:18:39;0.20;;;0.20;;
21260;SDS011;10788;47.930;9.766;2022-08-11T13:21:06;0.20;;;0.20;;
21260;SDS011;10788;47.930;9.766;2022-08-11T13:23:36;0.20;;;0.20;;
21260;SDS011;10788;47.930;9.766;2022-08-11T13:26:04;0.20;;;0.20;;
21260;SDS011;10788;47.930;9.766;2022-08-11T13:28:32;0.30;;;0.30;;
21260;SDS011;10788;47.930;9.766;2022-08-11T13:31:00;0.20;;;0.20;;
21260;SDS011;10788;47.930;9.766;2022-08-11T13:33:42;0.30;;;0.30;;
21260;SDS011;10788;47.930;9.766;2022-08-11T13:36:10;0.20;;;0.20;;
21260;SDS011;10788;47.930;9.766;2022-08-11T13:38:37;0.20;;;0.20;;
21260;SDS011;10788;47.930;9.766;2022-08-11T13:41:06;0.40;;;0.40;;
21260;SDS011;10788;47.930;9.766;2022-08-11T13:43:52;0.20;;;0.20;;
21260;SDS011;10788;47.930;9.766;2022-08-11T13:46:19;0.20;;;0.20;;
21260;SDS011;10788;47.930;9.766;2022-08-11T13:48:46;0.30;;;0.30;;
21260;SDS011;10788;47.930;9.766;2022-08-11T13:51:13;0.23;;;0.23;;
21260;SDS011;10788;47.930;9.766;2022-08-11T13:53:54;0.20;;;0.20;;
21260;SDS011;10788;47.930;9.766;2022-08-11T13:56:22;0.20;;;0.20;;
21260;SDS011;10788;47.930;9.766;2022-08-11T13:58:49;0.40;;;0.40;;
21260;SDS011;10788;47.930;9.766;2022-08-11T14:01:16;0.20;;;0.20;;
21260;SDS011;10788;47.930;9.766;2022-08-11T14:03:44;0.37;;;0.37;;
21260;SDS011;10788;47.930;9.766;2022-08-11T14:06:11;0.30;;;0.30;;
21260;SDS011;10788;47.930;9.766;2022-08-11T14:08:39;0.30;;;0.30;;
21260;SDS011;10788;47.930;9.766;2022-08-11T14:11:07;0.30;;;0.30;;
21260;SDS011;10788;47.930;9.766;2022-08-11T14:13:51;0.20;;;0.20;;
21260;SDS011;10788;47.930;9.766;2022-08-11T14:16:22;0.20;;;0.20;;
21260;SDS011;10788;47.930;9.766;2022-08-11T14:18:56;0.20;;;0.20;;
21260;SDS011;10788;47.930;9.766;2022-08-11T14:21:25;0.30;;;0.30;;
21260;SDS011;10788;47.930;9.766;2022-08-11T14:24:22;0.30;;;0.30;;
21260;SDS011;10788;47.930;9.766;2022-08-11T14:26:48;0.30;;;0.30;;
21260;SDS011;10788;47.930;9.766;2022-08-11T14:29:19;0.30;;;0.30;;
21260;SDS011;10788;47.930;9.766;2022-08-11T14:31:51;0.30;;;0.30;;
21260;SDS011;10788;47.930;9.766;2022-08-11T14:34:21;0.30;;;0.30;;
21260;SDS011;10788;47.930;9.766;2022-08-11T14:36:52;0.30;;;0.30;;
21260;SDS011;10788;47.930;9.766;2022-08-11T14:39:30;0.30;;;0.30;;
21260;SDS011;10788;47.930;9.766;2022-08-11T14:42:02;0.20;;;0.20;;
21260;SDS011;10788;47.930;9.766;2022-08-11T14:44:53;0.20;;;0.20;;
21260;SDS011;10788;47.930;9.766;2022-08-11T14:47:41;0.30;;;0.30;;
21260;SDS011;10788;47.930;9.766;2022-08-11T14:50:15;0.20;;;0.20;;
21260;SDS011;10788;47.930;9.766;2022-08-11T14:52:48;0.30;;;0.30;;
21260;SDS011;10788;47.930;9.766;2022-08-11T14:55:19;0.30;;;0.30;;
21260;SDS011;10788;47.930;9.766;2022-08-11T14:58:07;0.20;;;0.20;;
21260;SDS011;10788;47.930;9.766;2022-08-11T15:00:34;0.20;;;0.20;;
21260;SDS011;10788;47.930;9.766;2022-08-11T15:03:02;0.20;;;0.20;;
21260;SDS011;10788;47.930;9.766;2022-08-11T15:05:40;0.20;;;0.20;;
21260;SDS011;10788;47.930;9.766;2022-08-11T15:08:08;0.30;;;0.30;;
21260;SDS011;10788;47.930;9.766;2022-08-11T15:10:36;0.20;;;0.20;;
21260;SDS011;10788;47.930;9.766;2022-08-11T15:13:02;0.20;;;0.20;;
21260;SDS011;10788;47.930;9.766;2022-08-11T15:15:29;0.30;;;0.30;;
21260;SDS011;10788;47.930;9.766;2022-08-11T15:18:15;0.30;;;0.30;;
21260;SDS011;10788;47.930;9.766;2022-08-11T15:20:42;0.20;;;0.20;;
21260;SDS011;10788;47.930;9.766;2022-08-11T15:23:27;0.30;;;0.30;;
21260;SDS011;10788;47.930;9.766;2022-08-11T15:26:14;0.20;;;0.20;;
21260;SDS011;10788;47.930;9.766;2022-08-11T15:29:13;0.30;;;0.30;;
21260;SDS011;10788;47.930;9.766;2022-08-11T15:32:01;0.20;;;0.20;;
21260;SDS011;10788;47.930;9.766;2022-08-11T15:34:46;0.30;;;0.30;;
21260;SDS011;10788;47.930;9.766;2022-08-11T15:37:36;0.30;;;0.30;;
21260;SDS011;10788;47.930;9.766;2022-08-11T15:40:08;0.33;;;0.33;;
21260;SDS011;10788;47.930;9.766;2022-08-11T15:45:41;0.27;;;0.27;;
21260;SDS011;10788;47.930;9.766;2022-08-11T15:50:55;0.30;;;0.30;;
21260;SDS011;10788;47.930;9.766;2022-08-11T15:53:29;0.20;;;0.20;;
21260;SDS011;10788;47.930;9.766;2022-08-11T15:55:58;0.20;;;0.20;;
21260;SDS011;10788;47.930;9.766;2022-08-11T15:58:29;0.20;;;0.20;;
21260;SDS011;10788;47.930;9.766;2022-08-11T16:01:17;0.23;;;0.23;;
21260;SDS011;10788;47.930;9.766;2022-08-11T16:04:08;0.20;;;0.20;;
21260;SDS011;10788;47.930;9.766;2022-08-11T16:09:12;0.20;;;0.20;;
21260;SDS011;10788;47.930;9.766;2022-08-11T16:11:40;0.27;;;0.27;;
21260;SDS011;10788;47.930;9.766;2022-08-11T16:14:07;0.30;;;0.30;;
21260;SDS011;10788;47.930;9.766;2022-08-11T16:16:54;0.20;;;0.20;;
21260;SDS011;10788;47.930;9.766;2022-08-11T16:19:22;0.20;;;0.20;;
21260;SDS011;10788;47.930;9.766;2022-08-11T16:21:51;0.20;;;0.20;;
21260;SDS011;10788;47.930;9.766;2022-08-11T16:24:19;0.20;;;0.20;;
21260;SDS011;10788;47.930;9.766;2022-08-11T16:26:46;0.10;;;0.10;;
21260;SDS011;10788;47.930;9.766;2022-08-11T16:29:13;0.20;;;0.20;;
21260;SDS011;10788;47.930;9.766;2022-08-11T16:31:40;0.20;;;0.20;;
21260;SDS011;10788;47.930;9.766;2022-08-11T16:34:08;0.20;;;0.20;;
21260;SDS011;10788;47.930;9.766;2022-08-11T16:36:56;0.20;;;0.20;;
21260;SDS011;10788;47.930;9.766;2022-08-11T16:39:41;0.20;;;0.20;;
21260;SDS011;10788;47.930;9.766;2022-08-11T16:42:08;0.20;;;0.20;;
21260;SDS011;10788;47.930;9.766;2022-08-11T16:44:55;0.10;;;0.10;;
21260;SDS011;10788;47.930;9.766;2022-08-11T16:47:41;0.20;;;0.20;;
21260;SDS011;10788;47.930;9.766;2022-08-11T16:50:10;0.20;;;0.20;;
21260;SDS011;10788;47.930;9.766;2022-08-11T16:52:36;0.20;;;0.20;;
21260;SDS011;10788;47.930;9.766;2022-08-11T16:55:02;0.20;;;0.20;;
21260;SDS011;10788;47.930;9.766;2022-08-11T16:57:29;0.20;;;0.20;;
21260;SDS011;10788;47.930;9.766;2022-08-11T17:00:14;0.20;;;0.20;;
21260;SDS011;10788;47.930;9.766;2022-08-11T17:02:43;0.20;;;0.20;;
21260;SDS011;10788;47.930;9.766;2022-08-11T17:05:37;0.10;;;0.10;;
21260;SDS011;10788;47.930;9.766;2022-08-11T17:08:28;0.20;;;0.20;;
21260;SDS011;10788;47.930;9.766;2022-08-11T17:11:18;0.20;;;0.20;;
21260;SDS011;10788;47.930;9.766;2022-08-11T17:14:06;0.20;;;0.20;;
21260;SDS011;10788;47.930;9.766;2022-08-11T17:16:37;0.20;;;0.20;;
21260;SDS011;10788;47.930;9.766;2022-08-11T17:19:19;0.30;;;0.30;;
21260;SDS011;10788;47.930;9.766;2022-08-11T17:21:49;0.10;;;0.10;;
21260;SDS011;10788;47.930;9.766;2022-08-11T17:24:39;0.10;;;0.10;;
21260;SDS011;10788;47.930;9.766;2022-08-11T17:27:07;0.30;;;0.30;;
21260;SDS011;10788;47.930;9.766;2022-08-11T17:29:41;0.20;;;0.20;;
21260;SDS011;10788;47.930;9.766;2022-08-11T17:32:15;0.30;;;0.30;;
21260;SDS011;10788;47.930;9.766;2022-08-11T17:35:06;0.23;;;0.23;;
21260;SDS011;10788;47.930;9.766;2022-08-11T17:37:56;0.20;;;0.20;;
21260;SDS011;10788;47.930;9.766;2022-08-11T17:40:56;0.10;;;0.10;;
21260;SDS011;10788;47.930;9.766;2022-08-11T17:43:43;0.10;;;0.10;;
21260;SDS011;10788;47.930;9.766;2022-08-11T17:46:29;0.20;;;0.20;;
21260;SDS011;10788;47.930;9.766;2022-08-11T17:49:15;0.20;;;0.20;;
21260;SDS011;10788;47.930;9.766;2022-08-11T17:51:44;0.10;;;0.10;;
21260;SDS011;10788;47.930;9.766;2022-08-11T17:54:29;0.10;;;0.10;;
21260;SDS011;10788;47.930;9.766;2022-08-11T17:57:15;0.10;;;0.10;;
21260;SDS011;10788;47.930;9.766;2022-08-11T18:00:02;0.20;;;0.20;;
21260;SDS011;10788;47.930;9.766;2022-08-11T18:05:21;0.20;;;0.20;;
21260;SDS011;10788;47.930;9.766;2022-08-11T18:07:50;0.10;;;0.10;;
21260;SDS011;10788;47.930;9.766;2022-08-11T18:10:37;0.20;;;0.20;;
21260;SDS011;10788;47.930;9.766;2022-08-11T18:13:24;0.17;;;0.17;;
21260;SDS011;10788;47.930;9.766;2022-08-11T18:16:11;0.10;;;0.10;;
21260;SDS011;10788;47.930;9.766;2022-08-11T18:18:55;0.10;;;0.10;;
21260;SDS011;10788;47.930;9.766;2022-08-11T18:21:44;0.10;;;0.10;;
21260;SDS011;10788;47.930;9.766;2022-08-11T18:24:31;0.20;;;0.20;;
21260;SDS011;10788;47.930;9.766;2022-08-11T18:27:21;0.20;;;0.20;;
21260;SDS011;10788;47.930;9.766;2022-08-11T18:30:08;0.10;;;0.10;;
21260;SDS011;10788;47.930;9.766;2022-08-11T18:32:53;0.10;;;0.10;;
21260;SDS011;10788;47.930;9.766;2022-08-11T18:35:41;0.10;;;0.10;;
21260;SDS011;10788;47.930;9.766;2022-08-11T18:38:26;0.20;;;0.20;;
21260;SDS011;10788;47.930;9.766;2022-08-11T18:41:12;0.20;;;0.20;;
21260;SDS011;10788;47.930;9.766;2022-08-11T18:43:59;0.10;;;0.10;;
21260;SDS011;10788;47.930;9.766;2022-08-11T18:46:48;0.10;;;0.10;;
21260;SDS011;10788;47.930;9.766;2022-08-11T18:49:37;0.10;;;0.10;;
21260;SDS011;10788;47.930;9.766;2022-08-11T18:52:23;0.10;;;0.10;;
21260;SDS011;10788;47.930;9.766;2022-08-11T18:55:10;0.20;;;0.20;;
21260;SDS011;10788;47.930;9.766;2022-08-11T18:57:59;0.10;;;0.10;;
21260;SDS011;10788;47.930;9.766;2022-08-11T19:00:47;0.20;;;0.20;;
21260;SDS011;10788;47.930;9.766;2022-08-11T19:03:32;0.10;;;0.10;;
21260;SDS011;10788;47.930;9.766;2022-08-11T19:06:19;0.10;;;0.10;;
21260;SDS011;10788;47.930;9.766;2022-08-11T19:09:10;0.10;;;0.10;;
21260;SDS011;10788;47.930;9.766;2022-08-11T19:11:57;0.10;;;0.10;;
21260;SDS011;10788;47.930;9.766;2022-08-11T19:14:43;0.10;;;0.10;;
21260;SDS011;10788;47.930;9.766;2022-08-11T19:17:29;0.10;;;0.10;;
21260;SDS011;10788;47.930;9.766;2022-08-11T19:20:16;0.10;;;0.10;;
21260;SDS011;10788;47.930;9.766;2022-08-11T19:23:02;0.10;;;0.10;;
21260;SDS011;10788;47.930;9.766;2022-08-11T19:25:48;0.10;;;0.10;;
21260;SDS011;10788;47.930;9.766;2022-08-11T19:28:33;0.10;;;0.10;;
21260;SDS011;10788;47.930;9.766;2022-08-11T19:31:21;0.10;;;0.10;;